バロー の空港の天気 - METARとTAF

Barrow, Wiley Post-Will Rogers Memorial Airport ( PABR / BRW ) - アメリカ アラスカ州バロー
飛行場実況気象(Metar)
観測時間12/15 02:53 AKST (12/15 11:53 UTC)
風向・風速南南西 2m/s
視程8050m
天気現象もや
全天を覆う雲 雲底高度 1680m
気温-19.4℃
湿度82%
気圧1001.5hPa
METARPABR 151153Z AUTO 20004KT 5SM BR OVC055 M19/M22 A2957 RMK SNE34 SLP015 P0000 60002 70003 T11941217 11178 21194 50004 TSNO VIA AUTODIAL
過去の天気等 Google飛行場航空写真 Wunderground天気予報

過去48時間のMETAR

飛行場予報(TAF)
発表時間: 12/15 02:28 AKST (12/15 11:28 UTC)
予報対象時間: 15日3時 AKST ~ 16日3時 AKST
風向・風速南東 3m/s
15日6時 AKST から
風向・風速東 3m/s
視程10km以上
天気現象弱い雪 もや
全天の4割程度の雲 雲底高度 460m
全天の8割程度の雲 雲底高度 760m
全天を覆う雲 雲底高度 1070m
15日21時 AKST から
風向・風速東南東 3m/s
視程10km以上
全天の8割程度の雲 雲底高度 7620m
PABR 151128Z 1512/1612 13005KT 1 1/2SM -SN BR OVC030
FM151500 10006KT 6SM -SN BR SCT015 BKN025 OVC035
FM160600 11006KT P6SM BKN250